Farmington ASC Data

Date Time Air Temperature Relative Humidity Dewpoint Windchill Heat Index Wind Speed Wind Dir. Rain Solar Radiation Soil Temperature
2m 2m 3m 3m 10cm
US/Mountain F % F F F MPH deg in MJ/m^2 F
max avg avg
2021-05-04 00:05:00 45.2 72.0 36.7 45.2 45.2 2.2 2.8 1.9 21.8 47.8 0.00 0.0000000 56.7
2021-05-04 00:10:00 45.9 72.2 37.4 45.9 45.9 2.1 5.5 2.8 54.3 28.4 0.00 0.0000000 56.6
2021-05-04 00:15:00 45.4 71.4 36.7 45.4 45.4 1.9 4.0 2.5 19.1 53.0 0.00 0.0000000 56.6
2021-05-04 00:20:00 45.8 71.4 37.1 45.8 45.8 2.6 6.2 3.2 60.3 11.6 0.00 0.0000000 56.5
2021-05-04 00:25:00 45.8 71.7 37.1 43.8 45.8 4.2 4.2 2.4 44.9 33.2 0.00 0.0000000 56.4
2021-05-04 00:30:00 45.5 71.9 37.0 45.5 45.5 1.7 3.7 2.1 15.1 41.2 0.00 0.0000000 56.3
2021-05-04 00:35:00 45.2 72.7 36.9 45.2 45.2 1.9 3.3 1.9 31.5 24.1 0.00 0.0000000 56.2
2021-05-04 00:40:00 44.8 74.2 37.1 44.8 44.8 1.5 2.1 1.3 9.3 40.8 0.00 0.0000000 56.2
2021-05-04 00:45:00 45.0 74.1 37.3 45.0 45.0 3.0 3.5 2.3 0.4 22.9 0.00 0.0000000 56.1
2021-05-04 00:50:00 45.0 72.9 36.9 45.0 45.0 2.6 4.7 2.6 328.0 359.2 0.00 0.0000000 56.0
2021-05-04 00:55:00 44.7 73.5 36.7 44.7 44.7 1.3 3.5 2.3 22.9 355.3 0.00 0.0000000 56.0
2021-05-04 01:00:00 44.8 72.5 36.5 44.8 44.8 1.2 4.4 2.5 56.1 37.6 0.00 0.0000000 55.9
2021-05-04 01:05:00 43.6 73.1 35.6 43.6 43.6 1.9 2.2 1.6 97.8 104.5 0.00 0.0000000 55.9
2021-05-04 01:10:00 42.3 74.7 34.8 42.3 42.3 2.2 3.5 2.6 105.7 114.2 0.00 0.0000000 55.8
2021-05-04 01:15:00 41.3 77.5 34.8 41.3 41.3 0.8 2.1 1.4 73.0 92.4 0.00 0.0000000 55.7
2021-05-04 01:20:00 40.9 80.3 35.3 40.9 40.9 1.0 1.7 1.0 106.2 79.2 0.00 0.0000000 55.7
2021-05-04 01:25:00 41.0 77.1 34.4 41.0 41.0 2.2 2.6 1.6 127.0 103.3 0.00 0.0000000 55.6
2021-05-04 01:30:00 40.1 80.1 34.5 40.1 40.1 1.2 2.4 1.4 25.2 69.3 0.00 0.0000000 55.5
2021-05-04 01:35:00 40.3 84.1 35.9 40.3 40.3 0.0 2.1 1.2 35.2 48.8 0.00 0.0000000 55.5
2021-05-04 01:40:00 40.3 82.1 35.2 40.3 40.3 2.2 2.6 0.9 202.9 250.6 0.00 0.0000000 55.4
2021-05-04 01:45:00 40.0 78.8 33.9 40.0 40.0 2.4 2.8 2.4 151.4 181.8 0.00 0.0000000 55.4
2021-05-04 01:50:00 39.2 84.1 34.8 36.9 39.2 3.5 3.5 3.0 147.7 147.0 0.00 0.0000000 55.3
2021-05-04 01:55:00 40.8 82.6 35.9 40.8 40.8 2.4 3.5 3.0 130.2 140.0 0.00 0.0000000 55.2
2021-05-04 02:00:00 41.2 80.2 35.6 41.2 41.2 2.1 3.3 2.7 125.6 124.8 0.00 0.0000000 55.1
2021-05-04 02:05:00 40.7 79.8 34.9 40.7 40.7 1.5 2.4 1.9 92.5 121.3 0.00 0.0000000 55.1
2021-05-04 02:10:00 40.5 81.5 35.3 40.5 40.5 1.0 1.7 1.2 88.4 77.4 0.00 0.0000000 55.0
2021-05-04 02:15:00 39.8 79.1 33.8 39.8 39.8 2.4 2.4 1.7 120.9 111.3 0.00 0.0000000 55.0
2021-05-04 02:20:00 38.7 84.6 34.5 38.7 38.7 2.2 2.6 2.4 124.7 122.5 0.00 0.0000000 54.9
2021-05-04 02:25:00 39.4 84.5 35.2 39.4 39.4 1.7 2.4 1.8 81.5 89.0 0.00 0.0000000 54.9
2021-05-04 02:30:00 39.2 83.7 34.7 39.2 39.2 1.5 1.9 1.6 107.4 100.3 0.00 0.0000000 54.8
2021-05-04 02:35:00 39.6 83.3 35.0 39.6 39.6 2.1 2.2 1.9 93.7 95.6 0.00 0.0000000 54.7
2021-05-04 02:40:00 39.5 80.0 33.8 39.5 39.5 2.4 2.4 2.0 91.9 92.3 0.00 0.0000000 54.6
2021-05-04 02:45:00 38.8 81.4 33.5 38.8 38.8 2.8 2.8 2.5 95.5 89.2 0.00 0.0000000 54.6
2021-05-04 02:50:00 37.2 80.1 31.7 34.8 37.2 3.3 3.3 2.9 111.5 106.6 0.00 0.0000000 54.5
2021-05-04 02:55:00 35.9 84.6 31.7 35.9 35.9 1.9 3.5 3.0 108.2 117.4 0.00 0.0000000 54.4
2021-05-04 03:00:00 36.5 85.2 32.5 36.5 36.5 2.1 2.2 1.9 97.2 98.1 0.00 0.0000000 54.4
2021-05-04 03:05:00 37.0 87.3 33.6 37.0 37.0 1.3 2.1 1.7 96.2 84.4 0.00 0.0000000 54.3
2021-05-04 03:10:00 36.9 85.0 32.8 36.9 36.9 1.0 1.5 1.2 84.7 87.7 0.00 0.0000000 54.3
2021-05-04 03:15:00 36.9 87.3 33.4 36.9 36.9 1.7 1.9 1.5 79.2 73.9 0.00 0.0000000 54.2
2021-05-04 03:20:00 37.3 87.5 33.9 37.3 37.3 1.7 2.2 1.8 67.4 66.3 0.00 0.0000000 54.2
2021-05-04 03:25:00 37.4 87.0 33.9 37.4 37.4 1.7 2.2 1.8 65.3 58.6 0.00 0.0000000 54.1
2021-05-04 03:30:00 37.7 85.7 33.8 37.7 37.7 2.4 3.1 2.1 72.6 70.6 0.00 0.0000000 54.1
2021-05-04 03:35:00 37.6 83.6 33.1 37.6 37.6 1.0 2.8 1.7 58.8 71.8 0.00 0.0000000 54.0
2021-05-04 03:40:00 37.2 85.6 33.3 37.2 37.2 1.5 1.9 0.7 34.7 42.0 0.00 0.0000000 54.0
2021-05-04 03:45:00 37.8 83.9 33.4 37.8 37.8 1.7 2.1 1.4 97.6 50.2 0.00 0.0000000 53.9
2021-05-04 03:50:00 37.8 82.9 33.1 37.8 37.8 1.7 2.2 1.6 117.2 103.3 0.00 0.0000000 53.8
2021-05-04 03:55:00 37.1 82.9 32.4 37.1 37.1 1.3 2.4 1.9 96.9 108.0 0.00 0.0000000 53.8
2021-05-04 04:00:00 36.4 83.4 31.8 36.4 36.4 1.2 2.1 1.3 120.7 108.6 0.00 0.0000000 53.7
2021-05-04 04:05:00 36.0 86.7 32.4 36.0 36.0 2.2 2.6 1.8 112.4 113.8 0.00 0.0000000 53.6
2021-05-04 04:10:00 36.7 86.7 33.1 36.7 36.7 1.3 2.4 2.0 86.6 106.7 0.00 0.0000000 53.6
2021-05-04 04:15:00 36.9 85.1 32.9 36.9 36.9 1.7 1.7 1.3 87.4 87.9 0.00 0.0000000 53.5
2021-05-04 04:20:00 36.4 85.6 32.5 36.4 36.4 1.3 2.4 1.7 75.1 88.8 0.00 0.0000000 53.5
2021-05-04 04:25:00 36.3 87.4 32.9 36.3 36.3 1.3 1.7 1.4 91.4 77.3 0.00 0.0000000 53.4
2021-05-04 04:30:00 36.9 86.6 33.3 36.9 36.9 2.4 2.6 2.1 99.0 96.6 0.00 0.0000000 53.3
2021-05-04 04:35:00 36.7 82.1 31.7 33.6 36.7 3.8 4.0 2.9 131.8 110.4 0.00 0.0000000 53.3
2021-05-04 04:40:00 35.6 86.5 31.9 32.8 35.6 3.5 4.0 3.3 162.2 138.1 0.00 0.0000000 53.2
2021-05-04 04:45:00 35.5 88.9 32.5 35.5 35.5 1.7 3.7 2.6 85.7 145.8 0.00 0.0000000 53.2
2021-05-04 04:50:00 35.6 88.5 32.6 35.6 35.6 1.5 3.5 2.5 85.4 105.5 0.00 0.0000000 53.1
2021-05-04 04:55:00 35.6 89.2 32.8 35.6 35.6 1.9 2.8 2.0 72.2 101.0 0.00 0.0000000 53.1
2021-05-04 05:00:00 35.7 88.9 32.8 35.7 35.7 2.4 2.4 1.7 75.1 72.0 0.00 0.0000000 53.0
2021-05-04 05:05:00 35.7 88.5 32.6 35.7 35.7 3.0 3.5 2.3 67.9 84.4 0.00 0.0000000 53.0
2021-05-04 05:10:00 35.1 86.9 31.6 32.6 35.1 3.1 3.1 2.4 60.3 75.6 0.00 0.0000000 52.9
2021-05-04 05:15:00 34.2 88.4 31.1 34.2 34.2 1.9 3.1 2.4 68.7 81.9 0.00 0.0000000 52.9
2021-05-04 05:20:00 34.1 91.8 31.9 34.1 34.1 2.8 3.5 2.5 109.0 90.1 0.00 0.0000000 52.8
2021-05-04 05:25:00 34.4 90.8 31.9 34.4 34.4 1.3 2.8 1.9 96.6 74.8 0.00 0.0000000 52.8
2021-05-04 05:30:00 34.5 91.1 32.2 34.5 34.5 2.2 2.2 1.7 113.0 100.8 0.00 0.0000000 52.7
2021-05-04 05:35:00 34.7 90.8 32.3 34.7 34.7 2.6 3.1 2.3 87.3 110.5 0.00 0.0000000 52.6
2021-05-04 05:40:00 34.8 89.8 32.1 34.8 34.8 2.4 4.2 2.9 83.7 108.2 0.00 0.0000000 52.6
2021-05-04 05:45:00 34.5 90.1 31.9 34.5 34.5 2.6 3.7 2.4 95.3 87.3 0.00 0.0000000 52.6
2021-05-04 05:50:00 34.2 90.2 31.6 34.2 34.2 2.2 3.3 2.5 70.6 85.6 0.00 0.0000000 52.5
2021-05-04 05:55:00 33.6 89.9 30.9 33.6 33.6 2.1 2.8 2.2 69.5 69.1 0.00 0.0000000 52.5
2021-05-04 06:00:00 33.3 91.6 31.2 33.3 33.3 1.5 2.4 2.0 74.3 69.3 0.00 0.0000000 52.4
2021-05-04 06:05:00 33.1 91.9 31.0 33.1 33.1 3.0 3.0 2.1 68.3 70.9 0.00 0.0010000 52.4
2021-05-04 06:10:00 33.2 91.4 31.0 33.2 33.2 2.6 3.3 2.6 77.8 68.7 0.00 0.0020000 52.3
2021-05-04 06:15:00 34.1 94.4 32.6 34.1 34.1 1.3 2.8 1.9 81.0 63.6 0.00 0.0030000 52.3
2021-05-04 06:20:00 35.4 93.5 33.7 35.4 35.4 1.3 2.2 1.9 72.2 70.3 0.00 0.0050000 52.2
2021-05-04 06:25:00 35.8 89.3 33.0 35.8 35.8 2.1 2.6 2.0 68.5 69.5 0.00 0.0080000 52.2
2021-05-04 06:30:00 36.3 90.5 33.8 36.3 36.3 1.9 2.6 2.2 54.6 64.2 0.00 0.0130000 52.1
2021-05-04 06:35:00 37.0 91.0 34.6 37.0 37.0 2.1 2.2 2.0 20.0 42.8 0.00 0.0130000 52.1
2021-05-04 06:40:00 38.1 88.6 35.0 38.1 38.1 2.1 2.6 1.8 48.0 40.6 0.00 0.0150000 52.1
2021-05-04 06:45:00 38.8 87.1 35.3 38.8 38.8 0.0 2.1 1.2 41.3 28.4 0.00 0.0200000 52.1
2021-05-04 06:50:00 39.6 87.0 36.1 39.6 39.6 1.5 2.1 0.8 34.7 15.9 0.00 0.0240000 52.0
2021-05-04 06:55:00 40.4 84.0 35.9 40.4 40.4 2.4 2.4 1.2 3.9 35.5 0.00 0.0290000 52.0
2021-05-04 07:00:00 40.8 81.9 35.7 40.8 40.8 2.4 3.0 1.8 12.2 11.3 0.00 0.0340000 52.0
2021-05-04 07:05:00 41.0 81.0 35.6 41.0 41.0 0.0 2.6 0.9 283.9 5.6 0.00 0.0360000 51.9
2021-05-04 07:10:00 41.0 82.6 36.1 41.0 41.0 0.8 1.9 1.2 303.5 280.4 0.00 0.0430000 51.9
2021-05-04 07:15:00 41.3 80.9 35.9 41.3 41.3 0.0 0.0 0.0 307.6 0.0 0.00 0.0470000 51.9
2021-05-04 07:20:00 41.0 84.7 36.7 38.9 41.0 3.5 3.5 2.3 218.2 214.9 0.00 0.0600000 51.9
2021-05-04 07:25:00 40.7 85.8 36.7 40.7 40.7 2.1 3.5 2.5 256.0 245.6 0.00 0.0810000 51.9
2021-05-04 07:30:00 40.7 86.7 37.1 40.7 40.7 1.2 2.2 1.7 259.5 245.7 0.00 0.2360000 51.9
2021-05-04 07:35:00 42.2 82.9 37.4 42.2 42.2 2.4 2.6 1.6 234.7 257.8 0.00 0.2590000 51.9
2021-05-04 07:40:00 43.0 81.0 37.5 43.0 43.0 2.4 3.3 2.8 239.6 236.5 0.00 0.1950000 51.9
2021-05-04 07:45:00 44.4 79.4 38.4 44.4 44.4 0.0 2.4 0.5 40.5 234.6 0.00 0.1250000 52.0
2021-05-04 07:50:00 45.2 76.3 38.2 45.2 45.2 1.5 2.2 0.8 20.7 6.8 0.00 0.1260000 52.0
2021-05-04 07:55:00 45.7 74.0 37.9 45.7 45.7 1.9 2.1 1.2 87.2 62.2 0.00 0.1290000 52.0
2021-05-04 08:00:00 46.4 72.2 37.9 46.4 46.4 2.6 3.3 2.1 94.3 65.4 0.00 0.1310000 52.0
2021-05-04 08:05:00 47.0 70.3 37.8 45.6 47.0 3.7 4.4 3.0 90.3 65.3 0.00 0.1450000 52.1
2021-05-04 08:10:00 47.1 70.4 38.0 47.1 47.1 2.6 5.1 3.2 37.3 88.3 0.00 0.1700000 52.1
2021-05-04 08:15:00 47.7 69.2 38.1 47.7 47.7 2.8 3.8 2.7 91.3 67.7 0.00 0.1800000 52.1
2021-05-04 08:20:00 48.3 67.1 37.9 47.3 48.3 3.5 4.4 3.0 24.2 66.6 0.00 0.1870000 52.2
2021-05-04 08:25:00 48.7 66.6 38.1 48.7 48.7 2.4 3.1 2.5 48.4 41.6 0.00 0.2790000 52.2
2021-05-04 08:30:00 49.0 65.8 38.0 49.0 49.0 2.2 3.1 2.4 348.8 49.5 0.00 0.2230000 52.3
2021-05-04 08:35:00 49.6 65.4 38.4 49.6 49.6 2.2 4.0 2.5 138.5 52.6 0.00 0.2860000 52.3
2021-05-04 08:40:00 50.3 62.4 37.9 50.3 50.3 2.8 4.2 3.1 66.6 71.5 0.00 0.2600000 52.4
2021-05-04 08:45:00 50.6 64.0 38.9 50.6 50.6 2.1 5.1 2.9 15.9 37.5 0.00 0.2490000 52.4
2021-05-04 08:50:00 50.6 61.9 38.0 50.6 50.6 2.2 5.5 3.2 32.0 49.1 0.00 0.1790000 52.5
2021-05-04 08:55:00 50.0 61.9 37.5 50.0 50.0 2.6 4.9 2.9 23.9 68.9 0.00 0.1070000 52.6
2021-05-04 09:00:00 51.5 61.3 38.6 51.5 51.5 2.1 3.7 2.4 147.6 65.6 0.00 0.5010000 52.6
2021-05-04 09:05:00 52.7 56.7 37.8 52.7 52.7 2.2 4.6 3.2 97.8 102.3 0.00 0.5080000 52.7
2021-05-04 09:10:00 52.7 59.2 38.9 52.7 52.7 2.1 5.5 3.0 328.7 113.1 0.00 0.5230000 52.8
2021-05-04 09:15:00 53.8 56.0 38.5 53.8 53.8 5.1 5.3 2.6 186.4 160.9 0.00 0.5700000 52.8
2021-05-04 09:20:00 53.8 56.8 38.8 53.8 53.8 4.2 4.9 2.4 173.4 220.6 0.00 0.3200000 52.9
2021-05-04 09:25:00 52.7 58.0 38.4 52.7 52.7 3.0 7.4 4.8 139.4 166.9 0.00 0.6780000 53.0
2021-05-04 09:30:00 53.6 59.9 40.0 53.6 53.6 4.2 4.6 2.1 240.8 205.6 0.00 0.5990000 53.1
2021-05-04 09:35:00 53.8 54.8 37.9 53.8 53.8 2.2 5.6 4.0 234.6 177.6 0.00 0.5990000 53.2
2021-05-04 09:40:00 54.8 54.0 38.5 54.8 54.8 4.6 5.1 2.5 163.6 154.7 0.00 0.6100000 53.2
2021-05-04 09:45:00 54.7 54.3 38.6 54.7 54.7 1.9 5.3 3.3 184.9 173.6 0.00 0.6220000 53.3
2021-05-04 09:50:00 55.1 52.1 37.9 55.1 55.1 2.2 3.8 2.4 236.2 230.8 0.00 0.6360000 53.4
2021-05-04 09:55:00 56.6 51.5 38.9 56.6 56.6 4.4 4.4 2.4 124.2 149.8 0.00 0.6510000 53.6
2021-05-04 10:00:00 57.3 52.1 39.8 57.3 57.3 2.4 5.1 2.3 312.8 153.7 0.00 0.6600000 53.7
2021-05-04 10:05:00 55.9 48.7 36.9 55.9 55.9 3.3 5.1 3.2 284.0 234.8 0.00 0.6740000 53.9
2021-05-04 10:10:00 56.2 48.2 36.8 56.2 56.2 3.8 3.8 2.9 346.9 290.6 0.00 0.6870000 54.0
2021-05-04 10:15:00 56.5 51.8 39.0 56.5 56.5 3.7 5.1 3.1 280.2 304.5 0.00 0.7620000 54.2
2021-05-04 10:20:00 57.1 46.4 36.8 57.1 57.1 4.7 4.9 3.7 2.0 334.7 0.00 0.8440000 54.3
2021-05-04 10:25:00 57.5 46.0 36.8 57.5 57.5 2.8 5.8 3.4 263.5 357.3 0.00 0.7260000 54.5
2021-05-04 10:30:00 57.8 45.4 36.8 57.8 57.8 3.8 5.5 3.1 346.9 347.8 0.00 0.6950000 54.7
2021-05-04 10:35:00 59.2 47.6 39.3 59.2 59.2 1.9 3.3 2.1 238.4 312.4 0.00 0.8800000 54.9
2021-05-04 10:40:00 59.1 42.4 36.3 59.1 59.1 7.1 7.1 3.1 231.7 157.8 0.00 0.7740000 55.0
2021-05-04 10:45:00 58.5 43.8 36.5 58.5 58.5 6.7 8.1 5.4 248.3 228.4 0.00 0.7740000 55.2
2021-05-04 10:50:00 59.0 45.5 38.0 59.0 59.0 2.8 6.2 3.8 264.6 197.6 0.00 0.7810000 55.4
2021-05-04 10:55:00 58.2 43.5 36.1 58.2 58.2 4.7 7.1 4.9 286.2 266.6 0.00 0.7880000 55.6
2021-05-04 11:00:00 59.1 43.5 36.9 59.1 59.1 7.4 7.4 4.3 314.9 309.3 0.00 0.7980000 55.8
2021-05-04 11:05:00 58.7 41.6 35.4 58.7 58.7 3.7 8.3 5.1 326.3 317.1 0.00 0.8070000 56.0
2021-05-04 11:10:00 59.0 38.4 33.6 59.0 59.0 4.2 9.6 4.3 5.9 348.1 0.00 0.8170000 56.2
2021-05-04 11:15:00 60.5 35.8 33.3 60.5 60.5 4.7 4.7 2.7 340.8 40.8 0.00 0.8280000 56.4
2021-05-04 11:20:00 60.2 34.1 31.8 60.2 60.2 3.5 5.1 3.2 127.0 286.6 0.00 0.8370000 56.6
2021-05-04 11:25:00 59.9 35.1 32.3 59.9 59.9 2.8 6.7 3.8 57.2 87.6 0.00 0.8460000 56.8
2021-05-04 11:30:00 61.5 35.8 34.2 61.5 61.5 3.8 4.9 3.3 65.9 34.9 0.00 0.8550000 57.1
2021-05-04 11:35:00 61.6 34.0 32.9 61.6 61.6 1.3 6.9 3.5 34.6 345.6 0.00 0.8600000 57.3
2021-05-04 11:40:00 61.1 34.1 32.6 61.1 61.1 7.1 8.3 5.2 345.1 338.3 0.00 0.8650000 57.5
2021-05-04 11:45:00 61.4 32.0 31.3 61.4 61.4 2.8 8.1 3.9 22.7 7.0 0.00 0.8720000 57.7
2021-05-04 11:50:00 62.8 31.5 32.1 62.8 62.8 6.7 7.1 4.5 20.8 23.3 0.00 0.8780000 57.9
2021-05-04 11:55:00 63.4 30.3 31.7 63.4 63.4 2.6 5.8 3.8 254.6 20.4 0.00 0.8830000 58.1
2021-05-04 12:00:00 62.4 31.4 31.7 62.4 62.4 3.3 7.4 3.9 167.4 64.4 0.00 0.8890000 58.4
2021-05-04 12:05:00 62.5 31.1 31.5 62.5 62.5 2.6 5.3 3.5 5.9 155.2 0.00 0.8980000 58.6
2021-05-04 12:10:00 62.5 29.4 30.1 62.5 62.5 5.1 7.4 4.7 306.3 305.4 0.00 0.9020000 58.8
2021-05-04 12:15:00 62.0 35.0 34.0 62.0 62.0 3.7 7.2 5.0 214.6 229.7 0.00 0.9070000 59.0
2021-05-04 12:20:00 62.1 32.9 32.6 62.1 62.1 3.0 6.0 4.2 0.5 246.7 0.00 0.9090000 59.2
2021-05-04 12:25:00 62.3 29.8 30.3 62.3 62.3 4.7 8.1 5.1 275.0 317.0 0.00 0.9150000 59.4
2021-05-04 12:30:00 63.3 31.3 32.3 63.3 63.3 8.7 8.7 4.8 233.6 294.4 0.00 0.9190000 59.6
2021-05-04 12:35:00 62.7 33.0 33.1 62.7 62.7 4.7 10.3 6.9 220.7 238.2 0.00 0.9210000 59.9
2021-05-04 12:40:00 62.8 31.2 31.9 62.8 62.8 6.3 9.0 5.4 168.2 243.0 0.00 0.9210000 60.1
2021-05-04 12:45:00 63.9 31.4 33.0 63.9 63.9 2.1 7.2 3.5 35.1 115.7 0.00 0.9250000 60.3
2021-05-04 12:50:00 64.1 28.6 30.8 64.1 64.1 6.7 8.7 5.9 157.0 153.6 0.00 0.9260000 60.5
2021-05-04 12:55:00 63.6 29.9 31.5 63.6 63.6 4.2 7.6 5.2 147.1 182.5 0.00 0.9280000 60.7
2021-05-04 13:00:00 63.4 28.7 30.4 63.4 63.4 3.7 5.5 4.0 193.2 206.4 0.00 0.9300000 61.0
2021-05-04 13:05:00 64.7 29.8 32.4 64.7 64.7 4.2 8.5 4.1 240.8 191.6 0.00 0.9420000 61.2
2021-05-04 13:10:00 65.2 26.9 30.3 65.2 65.2 3.3 8.1 5.2 339.3 343.2 0.00 0.9350000 61.4
2021-05-04 13:15:00 65.9 24.8 29.0 65.9 65.9 9.6 14.7 8.3 280.5 285.9 0.00 0.9320000 61.6
2021-05-04 13:20:00 65.4 25.9 29.6 65.4 65.4 7.6 17.8 9.9 247.9 271.7 0.00 0.9300000 61.8
2021-05-04 13:25:00 66.3 27.4 31.7 66.3 66.3 7.2 13.5 9.3 268.1 256.9 0.00 0.9280000 62.0
2021-05-04 13:30:00 66.5 24.2 28.8 66.5 66.5 15.3 17.6 11.1 239.3 247.8 0.00 0.9310000 62.1
2021-05-04 13:35:00 66.1 24.5 28.7 66.1 66.1 6.3 16.4 11.7 260.9 258.1 0.00 0.9270000 62.3
2021-05-04 13:40:00 66.6 24.2 28.9 66.6 66.6 10.8 16.4 11.0 291.2 263.6 0.00 0.9280000 62.5
2021-05-04 13:45:00 66.3 23.7 28.1 66.3 66.3 15.5 16.4 12.6 283.3 259.8 0.00 0.9220000 62.7
2021-05-04 13:50:00 66.6 26.4 31.0 66.6 66.6 6.3 13.5 9.7 283.0 256.7 0.00 0.9220000 62.9
2021-05-04 13:55:00 66.1 24.9 29.2 66.1 66.1 6.0 9.4 6.6 244.7 231.5 0.00 0.9200000 63.1
2021-05-04 14:00:00 67.3 22.2 27.3 67.3 67.3 9.2 13.1 9.1 233.7 266.9 0.00 0.9160000 63.2
2021-05-04 14:05:00 66.3 22.9 27.3 66.3 66.3 4.6 13.5 8.6 248.9 272.7 0.00 0.9080000 63.4
2021-05-04 14:10:00 65.5 24.8 28.5 65.5 65.5 3.3 13.0 6.8 52.8 321.9 0.00 0.9010000 63.5
2021-05-04 14:15:00 66.8 23.4 28.2 66.8 66.8 9.9 11.0 5.6 281.2 315.0 0.00 0.9050000 63.7
2021-05-04 14:20:00 66.9 24.3 29.2 66.9 66.9 6.2 11.7 8.1 187.6 294.4 0.00 0.8960000 63.8
2021-05-04 14:25:00 66.9 23.1 28.0 66.9 66.9 9.2 14.7 6.1 297.8 290.2 0.00 0.8920000 64.0
2021-05-04 14:30:00 66.7 25.3 30.0 66.7 66.7 6.2 14.4 8.3 260.2 270.4 0.00 0.8830000 64.1
2021-05-04 14:35:00 67.6 22.3 27.7 67.6 67.6 6.3 12.1 7.6 280.6 282.7 0.00 0.8770000 64.2
2021-05-04 14:40:00 68.0 21.8 27.5 68.0 68.0 6.9 12.2 7.3 299.6 285.6 0.00 0.8690000 64.4
2021-05-04 14:45:00 68.5 22.2 28.3 68.5 68.5 6.0 9.2 6.4 337.4 308.1 0.00 0.8660000 64.5
2021-05-04 14:50:00 69.0 22.4 29.0 69.0 69.0 4.4 12.1 5.7 0.5 315.8 0.00 0.8550000 64.6
2021-05-04 14:55:00 68.6 21.6 27.8 68.6 68.6 8.0 11.7 8.0 288.9 325.3 0.00 0.8470000 64.7
2021-05-04 15:00:00 68.3 21.3 27.2 68.3 68.3 7.6 14.6 8.4 276.2 298.2 0.00 0.8380000 64.8
2021-05-04 15:05:00 68.9 20.8 27.2 68.9 68.9 11.2 11.5 7.2 263.3 266.1 0.00 0.8330000 64.9
2021-05-04 15:10:00 68.4 23.4 29.6 68.4 68.4 5.1 13.1 7.9 307.5 269.6 0.00 0.8210000 65.0
2021-05-04 15:15:00 68.9 22.3 28.9 68.9 68.9 8.7 13.3 9.1 263.6 250.8 0.00 0.8160000 65.1
2021-05-04 15:20:00 69.0 21.2 27.7 69.0 69.0 8.1 11.7 8.0 240.1 255.3 0.00 0.8050000 65.2
2021-05-04 15:25:00 69.0 19.9 26.1 69.0 69.0 6.0 13.1 6.6 295.0 286.8 0.00 0.7970000 65.3
2021-05-04 15:30:00 69.4 21.5 28.3 69.4 69.4 4.2 8.0 5.6 280.7 292.6 0.00 0.7890000 65.3
2021-05-04 15:35:00 69.9 21.1 28.3 69.9 69.9 5.8 13.3 9.4 246.1 262.1 0.00 0.7760000 65.4
2021-05-04 15:40:00 69.3 19.6 26.1 69.3 69.3 13.0 13.0 8.0 262.9 252.3 0.00 0.7660000 65.4
2021-05-04 15:45:00 69.3 19.6 26.0 69.3 69.3 3.5 14.6 9.8 236.6 265.1 0.00 0.7510000 65.5
2021-05-04 15:50:00 69.9 20.7 27.8 69.9 69.9 5.8 10.6 6.6 240.0 282.7 0.00 0.7430000 65.6
2021-05-04 15:55:00 69.9 20.7 27.8 69.9 69.9 12.1 12.1 6.6 328.4 319.4 0.00 0.7270000 65.6
2021-05-04 16:00:00 69.5 21.8 28.8 69.5 69.5 8.5 14.7 8.7 327.7 323.0 0.00 0.7150000 65.6
2021-05-04 16:05:00 69.0 24.6 31.3 69.0 69.0 3.8 9.0 6.0 309.6 320.6 0.00 0.7020000 65.6
2021-05-04 16:10:00 69.9 21.2 28.4 69.9 69.9 5.5 11.2 7.0 326.6 315.2 0.00 0.6880000 65.6
2021-05-04 16:15:00 69.5 20.3 27.0 69.5 69.5 4.4 14.0 7.9 294.5 267.2 0.00 0.6770000 65.6
2021-05-04 16:20:00 68.7 23.1 29.5 68.7 68.7 4.9 10.1 6.0 208.0 228.6 0.00 0.6620000 65.6
2021-05-04 16:25:00 69.8 21.1 28.2 69.8 69.8 2.2 7.6 4.4 333.2 220.3 0.00 0.6510000 65.6
2021-05-04 16:30:00 70.8 24.0 32.2 70.8 70.8 6.3 7.1 4.2 344.0 348.8 0.00 0.6380000 65.6
2021-05-04 16:35:00 69.6 21.4 28.4 69.6 69.6 6.7 11.2 6.7 227.3 276.4 0.00 0.6250000 65.5
2021-05-04 16:40:00 70.1 19.7 26.7 70.1 70.1 8.1 11.9 6.9 279.5 294.1 0.00 0.6100000 65.5
2021-05-04 16:45:00 69.6 22.8 29.9 69.6 69.6 3.1 11.9 7.1 336.3 289.5 0.00 0.5950000 65.5
2021-05-04 16:50:00 70.3 20.3 27.6 70.3 70.3 2.1 7.6 4.0 252.1 298.8 0.00 0.5810000 65.4
2021-05-04 16:55:00 69.9 20.1 27.1 69.9 69.9 6.0 9.2 6.4 307.8 298.3 0.00 0.5660000 65.4
2021-05-04 17:00:00 70.3 19.8 27.1 70.3 70.3 8.1 9.4 5.2 24.2 358.0 0.00 0.5500000 65.3
2021-05-04 17:05:00 70.7 19.6 27.2 70.7 70.7 8.1 9.0 6.1 294.4 295.5 0.00 0.5370000 65.3
2021-05-04 17:10:00 70.5 21.1 28.7 70.5 70.5 5.8 9.6 5.9 286.5 303.9 0.00 0.5220000 65.2
2021-05-04 17:15:00 71.2 20.8 28.9 71.2 71.2 4.9 9.4 5.4 326.5 279.8 0.00 0.5040000 65.2
2021-05-04 17:20:00 70.9 23.2 31.5 70.9 70.9 2.1 10.1 5.0 27.7 298.1 0.00 0.4890000 65.1
2021-05-04 17:25:00 70.7 20.1 27.8 70.7 70.7 4.0 8.5 5.8 1.1 325.9 0.00 0.4730000 65.1
2021-05-04 17:30:00 70.9 19.4 27.1 70.9 70.9 5.1 7.6 5.3 279.6 264.7 0.00 0.4580000 65.0
2021-05-04 17:35:00 70.8 19.6 27.2 70.8 70.8 7.6 7.6 4.4 268.0 267.6 0.00 0.4420000 64.9
2021-05-04 17:40:00 70.9 20.7 28.7 70.9 70.9 1.5 7.6 3.6 224.8 245.8 0.00 0.4260000 64.9
2021-05-04 17:45:00 71.5 18.7 26.7 71.5 71.5 4.2 6.3 3.0 236.7 262.1 0.00 0.4100000 64.8
2021-05-04 17:50:00 71.0 19.7 27.5 71.0 71.0 7.4 11.0 7.0 263.5 264.4 0.00 0.3930000 64.8
2021-05-04 17:55:00 70.9 19.4 27.1 70.9 70.9 8.5 8.7 6.0 275.5 297.4 0.00 0.3770000 64.7
2021-05-04 18:00:00 70.8 19.6 27.2 70.8 70.8 3.0 7.4 4.9 298.9 298.9 0.00 0.3620000 64.7
2021-05-04 18:05:00 70.7 20.5 28.2 70.7 70.7 2.8 4.0 3.1 137.0 177.2 0.00 0.3450000 64.6
2021-05-04 18:10:00 72.3 20.5 29.5 72.3 72.3 1.7 3.3 2.2 105.4 69.9 0.00 0.3280000 64.5
2021-05-04 18:15:00 72.6 19.4 28.5 72.6 72.6 1.5 4.9 2.8 96.2 25.5 0.00 0.3120000 64.5
2021-05-04 18:20:00 71.5 20.7 29.2 71.5 71.5 4.2 6.9 3.5 183.1 229.8 0.00 0.2960000 64.4
2021-05-04 18:25:00 71.5 19.2 27.2 71.5 71.5 2.4 6.5 3.6 170.4 162.5 0.00 0.2770000 64.3
2021-05-04 18:30:00 72.8 19.7 29.0 72.8 72.8 1.5 3.0 1.8 320.5 227.7 0.00 0.2620000 64.3
2021-05-04 18:35:00 72.3 20.2 29.3 72.3 72.3 2.4 6.2 3.5 342.0 307.8 0.00 0.2450000 64.2
2021-05-04 18:40:00 71.9 20.2 28.9 71.9 71.9 4.7 5.3 3.4 326.0 328.6 0.00 0.2300000 64.1
2021-05-04 18:45:00 71.5 20.0 28.3 71.5 71.5 2.8 5.6 4.0 9.9 297.5 0.00 0.2150000 64.0
2021-05-04 18:50:00 71.3 19.5 27.5 71.3 71.3 3.3 5.1 3.6 342.1 331.5 0.00 0.1990000 64.0
2021-05-04 18:55:00 70.8 21.1 29.0 70.8 70.8 5.3 8.3 4.5 340.4 322.8 0.00 0.1830000 63.9
2021-05-04 19:00:00 70.3 20.0 27.3 70.3 70.3 6.5 7.2 5.5 288.9 323.8 0.00 0.1670000 63.8
2021-05-04 19:05:00 70.1 19.7 26.8 70.1 70.1 6.2 7.8 5.4 303.7 318.7 0.00 0.1520000 63.7
2021-05-04 19:10:00 70.3 19.8 27.1 70.3 70.3 5.1 8.0 4.1 249.5 302.7 0.00 0.1380000 63.6
2021-05-04 19:15:00 69.9 19.9 26.9 69.9 69.9 5.6 6.0 4.4 317.6 285.0 0.00 0.1230000 63.6
2021-05-04 19:20:00 70.6 19.6 27.2 70.6 70.6 2.2 4.9 2.2 296.5 283.0 0.00 0.1060000 63.5
2021-05-04 19:25:00 71.2 19.1 26.9 71.2 71.2 1.5 2.4 1.7 295.6 269.0 0.00 0.0880000 63.4
2021-05-04 19:30:00 70.1 22.2 29.6 70.1 70.1 3.8 4.7 2.5 3.4 1.5 0.00 0.0690000 63.3
2021-05-04 19:35:00 69.2 22.9 29.7 69.2 69.2 2.2 3.8 2.9 304.3 340.0 0.00 0.0530000 63.2
2021-05-04 19:40:00 69.0 22.5 29.1 69.0 69.0 2.2 3.7 2.3 303.3 306.6 0.00 0.0390000 63.1
2021-05-04 19:45:00 68.4 22.5 28.5 68.4 68.4 2.6 4.6 3.1 342.3 314.1 0.00 0.0280000 63.0
2021-05-04 19:50:00 67.7 23.3 28.9 67.7 67.7 3.1 4.0 2.9 321.2 338.7 0.00 0.0190000 62.9
2021-05-04 19:55:00 66.7 24.2 28.9 66.7 66.7 2.2 3.3 2.4 11.7 339.0 0.00 0.0110000 62.9
2021-05-04 20:00:00 66.2 23.7 28.0 66.2 66.2 2.4 3.1 2.3 325.5 334.9 0.00 0.0070000 62.7
2021-05-04 20:05:00 65.5 24.2 27.9 65.5 65.5 3.0 3.0 2.4 341.2 0.6 0.00 0.0050000 62.6
2021-05-04 20:10:00 65.5 24.3 28.1 65.5 65.5 1.5 3.0 2.3 13.1 2.9 0.00 0.0030000 62.5
2021-05-04 20:15:00 64.7 25.7 28.7 64.7 64.7 1.3 1.7 1.5 20.0 12.5 0.00 0.0010000 62.4
2021-05-04 20:20:00 63.9 27.4 29.6 63.9 63.9 1.5 1.7 1.4 117.1 43.9 0.00 0.0010000 62.3
2021-05-04 20:25:00 62.5 27.7 28.7 62.5 62.5 2.2 2.2 1.9 91.6 104.8 0.00 0.0000000 62.2
2021-05-04 20:30:00 61.1 28.9 28.5 61.1 61.1 2.2 3.0 2.4 75.3 81.0 0.00 0.0000000 62.1
2021-05-04 20:35:00 60.4 29.7 28.6 60.4 60.4 2.4 3.1 2.6 95.9 83.7 0.00 0.0000000 62.0
2021-05-04 20:40:00 60.1 27.8 26.7 60.1 60.1 2.4 2.6 2.3 81.7 91.8 0.00 0.0000000 61.9
2021-05-04 20:45:00 58.6 28.5 26.0 58.6 58.6 1.9 2.6 2.0 76.7 79.8 0.00 0.0000000 61.8
2021-05-04 20:50:00 57.0 29.4 25.4 57.0 57.0 2.1 2.4 2.0 78.9 72.7 0.00 0.0000000 61.7
2021-05-04 20:55:00 56.8 29.6 25.3 56.8 56.8 2.2 3.5 2.7 66.7 80.9 0.00 0.0000000 61.6
2021-05-04 21:00:00 55.5 30.5 24.9 55.5 55.5 3.3 3.3 2.4 80.7 80.1 0.00 0.0000000 61.4
2021-05-04 21:05:00 54.4 30.0 23.5 54.4 54.4 2.2 2.8 2.4 74.4 81.3 0.00 0.0000000 61.3
2021-05-04 21:10:00 54.1 30.7 23.9 54.1 54.1 2.6 3.1 2.6 74.1 79.3 0.00 0.0000000 61.2
2021-05-04 21:15:00 53.6 30.9 23.6 53.6 53.6 2.8 3.1 2.8 92.1 85.2 0.00 0.0000000 61.1
2021-05-04 21:20:00 52.7 31.9 23.6 52.7 52.7 2.8 3.0 2.7 70.5 77.4 0.00 0.0000000 61.0
2021-05-04 21:25:00 52.8 32.0 23.8 52.8 52.8 2.4 3.3 2.7 79.1 76.8 0.00 0.0000000 60.9
2021-05-04 21:30:00 52.1 32.2 23.3 52.1 52.1 2.1 3.1 2.6 79.1 75.2 0.00 0.0000000 60.8
2021-05-04 21:35:00 52.1 32.4 23.5 52.1 52.1 2.8 3.1 2.6 88.1 80.9 0.00 0.0000000 60.7
2021-05-04 21:40:00 52.3 31.7 23.1 52.3 52.3 3.0 3.1 2.8 74.2 78.6 0.00 0.0000000 60.6
2021-05-04 21:45:00 52.9 31.6 23.5 52.9 52.9 2.6 3.1 2.8 76.2 77.6 0.00 0.0000000 60.5
2021-05-04 21:50:00 53.7 30.9 23.6 53.7 53.7 2.8 3.1 2.8 78.3 76.8 0.00 0.0000000 60.4
2021-05-04 21:55:00 53.9 30.5 23.5 53.9 53.9 3.8 4.2 3.4 92.0 85.5 0.00 0.0000000 60.3
2021-05-04 22:00:00 53.5 30.5 23.2 53.5 53.5 3.0 3.7 3.0 87.4 86.0 0.00 0.0000000 60.2
2021-05-04 22:05:00 52.0 31.3 22.5 52.0 52.0 3.7 4.4 3.6 108.9 99.0 0.00 0.0000000 60.1
2021-05-04 22:10:00 52.6 31.1 22.9 52.6 52.6 3.3 4.7 4.0 98.9 105.9 0.00 0.0000000 60.0
2021-05-04 22:15:00 52.0 32.0 23.1 52.0 52.0 3.5 4.6 3.7 106.0 107.3 0.00 0.0000000 59.9
2021-05-04 22:20:00 51.3 32.2 22.5 51.3 51.3 3.1 4.0 3.1 87.2 93.8 0.00 0.0000000 59.8
2021-05-04 22:25:00 50.6 32.4 22.1 50.6 50.6 3.8 4.4 3.6 80.1 93.9 0.00 0.0000000 59.7
2021-05-04 22:30:00 49.9 34.6 23.0 49.4 49.9 3.1 3.8 3.2 105.1 95.9 0.00 0.0000000 59.6
2021-05-04 22:35:00 50.6 33.4 22.8 50.6 50.6 3.5 4.4 3.7 90.9 98.9 0.00 0.0000000 59.6
2021-05-04 22:40:00 50.2 34.8 23.5 50.2 50.2 3.3 4.4 3.7 46.2 92.7 0.00 0.0000000 59.5
2021-05-04 22:45:00 49.9 34.2 22.8 49.9 49.9 3.0 3.5 2.9 70.9 83.6 0.00 0.0000000 59.4
2021-05-04 22:50:00 49.9 34.4 22.9 49.9 49.9 2.6 3.5 2.8 55.2 71.5 0.00 0.0000000 59.3
2021-05-04 22:55:00 50.6 32.9 22.5 50.6 50.6 3.0 3.8 3.1 91.0 87.6 0.00 0.0000000 59.2
2021-05-04 23:00:00 49.5 34.0 22.3 49.5 49.5 2.4 2.6 2.3 64.1 74.4 0.00 0.0000000 59.1
2021-05-04 23:05:00 48.8 35.2 22.5 48.8 48.8 2.1 2.6 2.2 81.5 74.3 0.00 0.0000000 59.1
2021-05-04 23:10:00 48.7 35.5 22.6 48.7 48.7 1.9 2.2 2.0 89.0 80.6 0.00 0.0000000 59.0
2021-05-04 23:15:00 48.4 35.5 22.3 48.4 48.4 2.2 2.4 2.1 76.4 81.0 0.00 0.0000000 58.9
2021-05-04 23:20:00 48.0 36.8 22.8 48.0 48.0 1.7 2.1 1.7 81.3 79.3 0.00 0.0000000 58.8
2021-05-04 23:25:00 47.6 36.1 22.0 47.6 47.6 2.2 2.8 2.1 74.9 81.1 0.00 0.0000000 58.7
2021-05-04 23:30:00 47.8 36.2 22.3 46.7 47.8 3.5 4.2 3.2 91.6 93.8 0.00 0.0000000 58.6
2021-05-04 23:35:00 48.0 36.0 22.3 48.0 48.0 2.6 3.8 3.1 78.3 88.9 0.00 0.0000000 58.5
2021-05-04 23:40:00 47.6 37.3 22.8 47.6 47.6 1.9 3.0 2.4 94.0 71.5 0.00 0.0000000 58.5
2021-05-04 23:45:00 47.7 38.0 23.3 47.7 47.7 2.1 2.2 1.9 78.8 73.9 0.00 0.0000000 58.4
2021-05-04 23:50:00 48.1 37.5 23.4 47.4 48.1 3.1 3.1 2.6 68.6 70.0 0.00 0.0000000 58.3
2021-05-04 23:55:00 49.5 35.9 23.6 49.0 49.5 3.1 4.6 3.7 58.5 63.8 0.00 0.0000000 58.2
2021-05-05 00:00:00 49.2 37.3 24.2 49.2 49.2 2.8 3.3 2.3 63.9 67.9 0.00 0.0000000 58.1

Data is courtesy of the NM Climate Center. DO NOT USE IN LEGAL PROCEEDINGS.